sensor_id;sensor_type;location;lat;lon;timestamp;temperature;humidity
10249;DHT22;5169;50.560;9.714;2022-08-21T00:00:15;18.30;99.90
10249;DHT22;5169;50.560;9.714;2022-08-21T00:02:51;18.20;99.90
10249;DHT22;5169;50.560;9.714;2022-08-21T00:05:17;18.10;99.90
10249;DHT22;5169;50.560;9.714;2022-08-21T00:07:44;18.20;99.90
10249;DHT22;5169;50.560;9.714;2022-08-21T00:10:11;18.30;99.90
10249;DHT22;5169;50.560;9.714;2022-08-21T00:12:40;18.30;99.90
10249;DHT22;5169;50.560;9.714;2022-08-21T00:15:17;18.30;99.90
10249;DHT22;5169;50.560;9.714;2022-08-21T00:17:46;18.30;99.90
10249;DHT22;5169;50.560;9.714;2022-08-21T00:20:13;18.20;99.90
10249;DHT22;5169;50.560;9.714;2022-08-21T00:22:39;18.10;99.90
10249;DHT22;5169;50.560;9.714;2022-08-21T00:25:15;17.90;99.90
10249;DHT22;5169;50.560;9.714;2022-08-21T00:27:47;18.00;99.90
10249;DHT22;5169;50.560;9.714;2022-08-21T00:30:16;18.00;99.90
10249;DHT22;5169;50.560;9.714;2022-08-21T00:32:45;18.00;99.90
10249;DHT22;5169;50.560;9.714;2022-08-21T00:35:16;17.80;99.90
10249;DHT22;5169;50.560;9.714;2022-08-21T00:37:45;17.70;99.90
10249;DHT22;5169;50.560;9.714;2022-08-21T00:40:15;17.80;99.90
10249;DHT22;5169;50.560;9.714;2022-08-21T00:42:41;17.90;99.90
10249;DHT22;5169;50.560;9.714;2022-08-21T00:45:13;17.80;99.90
10249;DHT22;5169;50.560;9.714;2022-08-21T00:47:39;17.70;99.90
10249;DHT22;5169;50.560;9.714;2022-08-21T00:50:07;17.60;99.90
10249;DHT22;5169;50.560;9.714;2022-08-21T00:52:35;17.50;99.90
10249;DHT22;5169;50.560;9.714;2022-08-21T00:55:03;17.40;99.90
10249;DHT22;5169;50.560;9.714;2022-08-21T00:57:47;17.40;99.90
10249;DHT22;5169;50.560;9.714;2022-08-21T01:00:22;17.40;99.90
10249;DHT22;5169;50.560;9.714;2022-08-21T01:02:48;17.30;99.90
10249;DHT22;5169;50.560;9.714;2022-08-21T01:05:15;17.30;99.90
10249;DHT22;5169;50.560;9.714;2022-08-21T01:07:42;17.30;99.90
10249;DHT22;5169;50.560;9.714;2022-08-21T01:10:14;17.10;99.90
10249;DHT22;5169;50.560;9.714;2022-08-21T01:12:40;17.10;99.90
10249;DHT22;5169;50.560;9.714;2022-08-21T01:15:16;17.00;99.90
10249;DHT22;5169;50.560;9.714;2022-08-21T01:17:47;16.90;99.90
10249;DHT22;5169;50.560;9.714;2022-08-21T01:20:13;16.80;99.90
10249;DHT22;5169;50.560;9.714;2022-08-21T01:22:38;16.80;99.90
10249;DHT22;5169;50.560;9.714;2022-08-21T01:25:06;16.80;99.90
10249;DHT22;5169;50.560;9.714;2022-08-21T01:27:32;16.80;99.90
10249;DHT22;5169;50.560;9.714;2022-08-21T01:30:26;16.80;99.90
10249;DHT22;5169;50.560;9.714;2022-08-21T01:32:51;16.70;99.90
10249;DHT22;5169;50.560;9.714;2022-08-21T01:35:19;16.60;99.90
10249;DHT22;5169;50.560;9.714;2022-08-21T01:37:45;16.50;99.90
10249;DHT22;5169;50.560;9.714;2022-08-21T01:40:15;16.50;99.90
10249;DHT22;5169;50.560;9.714;2022-08-21T01:42:43;16.60;99.90
10249;DHT22;5169;50.560;9.714;2022-08-21T01:45:09;16.80;99.90
10249;DHT22;5169;50.560;9.714;2022-08-21T01:47:42;16.80;99.90
10249;DHT22;5169;50.560;9.714;2022-08-21T01:50:16;16.70;99.90
10249;DHT22;5169;50.560;9.714;2022-08-21T01:52:43;16.60;99.90
10249;DHT22;5169;50.560;9.714;2022-08-21T01:55:10;16.40;99.90
10249;DHT22;5169;50.560;9.714;2022-08-21T01:57:44;16.40;99.90
10249;DHT22;5169;50.560;9.714;2022-08-21T02:00:15;16.60;99.90
10249;DHT22;5169;50.560;9.714;2022-08-21T02:02:42;16.50;99.90
10249;DHT22;5169;50.560;9.714;2022-08-21T02:05:14;16.50;99.90
10249;DHT22;5169;50.560;9.714;2022-08-21T02:07:43;16.50;99.90
10249;DHT22;5169;50.560;9.714;2022-08-21T02:10:16;16.40;99.90
10249;DHT22;5169;50.560;9.714;2022-08-21T02:12:42;16.40;99.90
10249;DHT22;5169;50.560;9.714;2022-08-21T02:15:08;16.40;99.90
10249;DHT22;5169;50.560;9.714;2022-08-21T02:17:53;16.50;99.90
10249;DHT22;5169;50.560;9.714;2022-08-21T02:20:45;16.50;99.90
10249;DHT22;5169;50.560;9.714;2022-08-21T02:23:14;16.50;99.90
10249;DHT22;5169;50.560;9.714;2022-08-21T02:25:42;16.70;99.90
10249;DHT22;5169;50.560;9.714;2022-08-21T02:28:16;16.60;99.90
10249;DHT22;5169;50.560;9.714;2022-08-21T02:30:45;16.40;99.90
10249;DHT22;5169;50.560;9.714;2022-08-21T02:33:16;16.30;99.90
10249;DHT22;5169;50.560;9.714;2022-08-21T02:35:43;16.40;99.90
10249;DHT22;5169;50.560;9.714;2022-08-21T02:38:18;16.50;99.90
10249;DHT22;5169;50.560;9.714;2022-08-21T02:40:47;16.60;99.90
10249;DHT22;5169;50.560;9.714;2022-08-21T02:43:17;16.70;99.90
10249;DHT22;5169;50.560;9.714;2022-08-21T02:45:44;16.70;99.90
10249;DHT22;5169;50.560;9.714;2022-08-21T02:48:16;16.70;99.90
10249;DHT22;5169;50.560;9.714;2022-08-21T02:50:55;16.60;99.90
10249;DHT22;5169;50.560;9.714;2022-08-21T02:53:21;16.60;99.90
10249;DHT22;5169;50.560;9.714;2022-08-21T02:55:50;16.60;99.90
10249;DHT22;5169;50.560;9.714;2022-08-21T02:58:21;16.50;99.90
10249;DHT22;5169;50.560;9.714;2022-08-21T03:00:47;16.30;99.90
10249;DHT22;5169;50.560;9.714;2022-08-21T03:03:13;16.20;99.90
10249;DHT22;5169;50.560;9.714;2022-08-21T03:05:46;16.20;99.90
10249;DHT22;5169;50.560;9.714;2022-08-21T03:08:14;16.10;99.90
10249;DHT22;5169;50.560;9.714;2022-08-21T03:10:44;16.10;99.90
10249;DHT22;5169;50.560;9.714;2022-08-21T03:13:11;16.00;99.90
10249;DHT22;5169;50.560;9.714;2022-08-21T03:15:40;15.90;99.90
10249;DHT22;5169;50.560;9.714;2022-08-21T03:18:07;15.70;99.90
10249;DHT22;5169;50.560;9.714;2022-08-21T03:20:35;15.70;99.90
10249;DHT22;5169;50.560;9.714;2022-08-21T03:23:02;15.80;99.90
10249;DHT22;5169;50.560;9.714;2022-08-21T03:25:29;15.70;99.90
10249;DHT22;5169;50.560;9.714;2022-08-21T03:27:58;15.60;99.90
10249;DHT22;5169;50.560;9.714;2022-08-21T03:30:28;15.50;99.90
10249;DHT22;5169;50.560;9.714;2022-08-21T03:32:59;15.50;99.90
10249;DHT22;5169;50.560;9.714;2022-08-21T03:35:27;15.60;99.90
10249;DHT22;5169;50.560;9.714;2022-08-21T03:37:55;15.40;99.90
10249;DHT22;5169;50.560;9.714;2022-08-21T03:40:22;15.30;99.90
10249;DHT22;5169;50.560;9.714;2022-08-21T03:42:54;15.30;99.90
10249;DHT22;5169;50.560;9.714;2022-08-21T03:45:28;15.30;99.90
10249;DHT22;5169;50.560;9.714;2022-08-21T03:47:57;15.30;99.90
10249;DHT22;5169;50.560;9.714;2022-08-21T03:50:27;15.30;99.90
10249;DHT22;5169;50.560;9.714;2022-08-21T03:52:56;15.20;99.90
10249;DHT22;5169;50.560;9.714;2022-08-21T03:55:22;15.30;99.90
10249;DHT22;5169;50.560;9.714;2022-08-21T03:57:48;15.30;99.90
10249;DHT22;5169;50.560;9.714;2022-08-21T04:00:20;15.30;99.90
10249;DHT22;5169;50.560;9.714;2022-08-21T04:02:46;15.30;99.90
10249;DHT22;5169;50.560;9.714;2022-08-21T04:05:13;15.30;99.90
10249;DHT22;5169;50.560;9.714;2022-08-21T04:08:00;15.30;99.90
10249;DHT22;5169;50.560;9.714;2022-08-21T04:10:28;15.50;99.90
10249;DHT22;5169;50.560;9.714;2022-08-21T04:12:59;15.70;99.90
10249;DHT22;5169;50.560;9.714;2022-08-21T04:15:27;15.80;99.90
10249;DHT22;5169;50.560;9.714;2022-08-21T04:17:56;15.70;99.90
10249;DHT22;5169;50.560;9.714;2022-08-21T04:20:24;15.60;99.90
10249;DHT22;5169;50.560;9.714;2022-08-21T04:22:51;15.40;99.90
10249;DHT22;5169;50.560;9.714;2022-08-21T04:25:19;15.40;99.90
10249;DHT22;5169;50.560;9.714;2022-08-21T04:27:45;15.30;99.90
10249;DHT22;5169;50.560;9.714;2022-08-21T04:30:12;15.30;99.90
10249;DHT22;5169;50.560;9.714;2022-08-21T04:32:41;15.30;99.90
10249;DHT22;5169;50.560;9.714;2022-08-21T04:35:10;15.30;99.90
10249;DHT22;5169;50.560;9.714;2022-08-21T04:37:37;15.20;99.90
10249;DHT22;5169;50.560;9.714;2022-08-21T04:40:04;15.30;99.90
10249;DHT22;5169;50.560;9.714;2022-08-21T04:42:40;15.20;99.90
10249;DHT22;5169;50.560;9.714;2022-08-21T04:45:09;15.20;99.90
10249;DHT22;5169;50.560;9.714;2022-08-21T04:47:37;15.20;99.90
10249;DHT22;5169;50.560;9.714;2022-08-21T04:50:03;15.20;99.90
10249;DHT22;5169;50.560;9.714;2022-08-21T04:52:29;15.20;99.90
10249;DHT22;5169;50.560;9.714;2022-08-21T04:54:55;15.20;99.90
10249;DHT22;5169;50.560;9.714;2022-08-21T04:57:20;15.20;99.90
10249;DHT22;5169;50.560;9.714;2022-08-21T04:59:50;15.30;99.90
10249;DHT22;5169;50.560;9.714;2022-08-21T05:02:21;15.30;99.90
10249;DHT22;5169;50.560;9.714;2022-08-21T05:04:51;15.30;99.90
10249;DHT22;5169;50.560;9.714;2022-08-21T05:07:29;15.40;99.90
10249;DHT22;5169;50.560;9.714;2022-08-21T05:09:59;15.70;99.90
10249;DHT22;5169;50.560;9.714;2022-08-21T05:12:25;15.80;99.90
10249;DHT22;5169;50.560;9.714;2022-08-21T05:14:51;15.80;99.90
10249;DHT22;5169;50.560;9.714;2022-08-21T05:17:17;15.90;99.90
10249;DHT22;5169;50.560;9.714;2022-08-21T05:19:43;16.00;99.90
10249;DHT22;5169;50.560;9.714;2022-08-21T05:22:09;16.00;99.90
10249;DHT22;5169;50.560;9.714;2022-08-21T05:24:34;16.00;99.90
10249;DHT22;5169;50.560;9.714;2022-08-21T05:27:00;16.00;99.90
10249;DHT22;5169;50.560;9.714;2022-08-21T05:29:26;16.00;99.90
10249;DHT22;5169;50.560;9.714;2022-08-21T05:32:00;15.90;99.90
10249;DHT22;5169;50.560;9.714;2022-08-21T05:34:26;16.20;99.90
10249;DHT22;5169;50.560;9.714;2022-08-21T05:37:00;16.20;99.90
10249;DHT22;5169;50.560;9.714;2022-08-21T05:39:26;16.20;99.90
10249;DHT22;5169;50.560;9.714;2022-08-21T05:41:51;16.00;99.90
10249;DHT22;5169;50.560;9.714;2022-08-21T05:44:18;15.90;99.90
10249;DHT22;5169;50.560;9.714;2022-08-21T05:46:47;15.80;99.90
10249;DHT22;5169;50.560;9.714;2022-08-21T05:49:13;15.80;99.90
10249;DHT22;5169;50.560;9.714;2022-08-21T05:51:41;15.70;99.90
10249;DHT22;5169;50.560;9.714;2022-08-21T05:54:07;15.60;99.90
10249;DHT22;5169;50.560;9.714;2022-08-21T05:56:38;15.90;99.90
10249;DHT22;5169;50.560;9.714;2022-08-21T05:59:10;16.30;99.90
10249;DHT22;5169;50.560;9.714;2022-08-21T06:01:36;16.50;99.90
10249;DHT22;5169;50.560;9.714;2022-08-21T06:04:07;16.50;99.90
10249;DHT22;5169;50.560;9.714;2022-08-21T06:06:33;16.80;99.90
10249;DHT22;5169;50.560;9.714;2022-08-21T06:08:59;16.70;99.90
10249;DHT22;5169;50.560;9.714;2022-08-21T06:11:25;16.70;99.90
10249;DHT22;5169;50.560;9.714;2022-08-21T06:13:51;16.60;99.90
10249;DHT22;5169;50.560;9.714;2022-08-21T06:16:19;16.60;99.90
10249;DHT22;5169;50.560;9.714;2022-08-21T06:18:45;16.60;99.90
10249;DHT22;5169;50.560;9.714;2022-08-21T06:21:12;16.90;99.90
10249;DHT22;5169;50.560;9.714;2022-08-21T06:23:39;17.00;99.90
10249;DHT22;5169;50.560;9.714;2022-08-21T06:26:12;17.10;99.90
10249;DHT22;5169;50.560;9.714;2022-08-21T06:28:42;17.40;99.90
10249;DHT22;5169;50.560;9.714;2022-08-21T06:31:19;17.30;99.90
10249;DHT22;5169;50.560;9.714;2022-08-21T06:33:48;17.30;99.90
10249;DHT22;5169;50.560;9.714;2022-08-21T06:36:15;17.40;99.90
10249;DHT22;5169;50.560;9.714;2022-08-21T06:38:43;17.50;99.90
10249;DHT22;5169;50.560;9.714;2022-08-21T06:41:09;17.70;99.90
10249;DHT22;5169;50.560;9.714;2022-08-21T06:43:42;18.00;99.90
10249;DHT22;5169;50.560;9.714;2022-08-21T06:46:08;18.10;99.90
10249;DHT22;5169;50.560;9.714;2022-08-21T06:48:33;18.20;99.90
10249;DHT22;5169;50.560;9.714;2022-08-21T06:51:04;18.20;99.90
10249;DHT22;5169;50.560;9.714;2022-08-21T06:53:30;18.10;99.90
10249;DHT22;5169;50.560;9.714;2022-08-21T06:55:56;18.20;99.90
10249;DHT22;5169;50.560;9.714;2022-08-21T06:58:29;18.30;99.90
10249;DHT22;5169;50.560;9.714;2022-08-21T07:00:56;18.30;99.90
10249;DHT22;5169;50.560;9.714;2022-08-21T07:03:39;18.20;99.90
10249;DHT22;5169;50.560;9.714;2022-08-21T07:06:06;17.90;99.90
10249;DHT22;5169;50.560;9.714;2022-08-21T07:08:33;17.80;99.90
10249;DHT22;5169;50.560;9.714;2022-08-21T07:11:03;17.80;99.90
10249;DHT22;5169;50.560;9.714;2022-08-21T07:13:29;18.20;99.90
10249;DHT22;5169;50.560;9.714;2022-08-21T07:15:57;18.50;99.90
10249;DHT22;5169;50.560;9.714;2022-08-21T07:18:29;18.70;99.90
10249;DHT22;5169;50.560;9.714;2022-08-21T07:20:55;18.80;99.90
10249;DHT22;5169;50.560;9.714;2022-08-21T07:23:40;18.90;99.90
10249;DHT22;5169;50.560;9.714;2022-08-21T07:26:06;18.90;99.90
10249;DHT22;5169;50.560;9.714;2022-08-21T07:28:34;19.10;99.90
10249;DHT22;5169;50.560;9.714;2022-08-21T07:31:04;19.10;99.90
10249;DHT22;5169;50.560;9.714;2022-08-21T07:33:33;19.40;99.90
10249;DHT22;5169;50.560;9.714;2022-08-21T07:35:59;19.50;99.90
10249;DHT22;5169;50.560;9.714;2022-08-21T07:38:27;19.70;99.90
10249;DHT22;5169;50.560;9.714;2022-08-21T07:40:55;19.90;99.90
10249;DHT22;5169;50.560;9.714;2022-08-21T07:43:27;20.00;99.90
10249;DHT22;5169;50.560;9.714;2022-08-21T07:45:52;19.80;99.90
10249;DHT22;5169;50.560;9.714;2022-08-21T07:48:22;19.90;99.90
10249;DHT22;5169;50.560;9.714;2022-08-21T07:50:51;20.00;99.90
10249;DHT22;5169;50.560;9.714;2022-08-21T07:53:17;20.20;99.90
10249;DHT22;5169;50.560;9.714;2022-08-21T07:55:47;20.20;99.90
10249;DHT22;5169;50.560;9.714;2022-08-21T07:58:15;20.30;99.90
10249;DHT22;5169;50.560;9.714;2022-08-21T08:00:49;20.50;99.90
10249;DHT22;5169;50.560;9.714;2022-08-21T08:03:15;20.60;99.90
10249;DHT22;5169;50.560;9.714;2022-08-21T08:05:43;20.70;99.90
10249;DHT22;5169;50.560;9.714;2022-08-21T08:08:18;20.70;99.90
10249;DHT22;5169;50.560;9.714;2022-08-21T08:10:50;20.80;99.90
10249;DHT22;5169;50.560;9.714;2022-08-21T08:13:17;20.90;99.90
10249;DHT22;5169;50.560;9.714;2022-08-21T08:15:48;21.00;99.90
10249;DHT22;5169;50.560;9.714;2022-08-21T08:18:13;21.00;99.90
10249;DHT22;5169;50.560;9.714;2022-08-21T08:20:39;21.00;99.90
10249;DHT22;5169;50.560;9.714;2022-08-21T08:23:11;21.20;99.90
10249;DHT22;5169;50.560;9.714;2022-08-21T08:25:37;21.30;99.90
10249;DHT22;5169;50.560;9.714;2022-08-21T08:28:07;21.40;99.90
10249;DHT22;5169;50.560;9.714;2022-08-21T08:30:35;21.40;99.90
10249;DHT22;5169;50.560;9.714;2022-08-21T08:33:03;21.50;99.90
10249;DHT22;5169;50.560;9.714;2022-08-21T08:35:29;21.70;99.90
10249;DHT22;5169;50.560;9.714;2022-08-21T08:37:55;22.00;99.90
10249;DHT22;5169;50.560;9.714;2022-08-21T08:43:48;22.10;99.90
10249;DHT22;5169;50.560;9.714;2022-08-21T08:46:20;22.10;99.90
10249;DHT22;5169;50.560;9.714;2022-08-21T08:48:53;22.30;99.90
10249;DHT22;5169;50.560;9.714;2022-08-21T08:51:25;22.10;99.90
10249;DHT22;5169;50.560;9.714;2022-08-21T08:54:02;21.90;99.90
10249;DHT22;5169;50.560;9.714;2022-08-21T08:56:36;21.80;99.90
10249;DHT22;5169;50.560;9.714;2022-08-21T08:59:20;21.90;99.90
10249;DHT22;5169;50.560;9.714;2022-08-21T09:01:47;22.20;99.90
10249;DHT22;5169;50.560;9.714;2022-08-21T09:04:23;22.40;99.90
10249;DHT22;5169;50.560;9.714;2022-08-21T09:09:53;23.00;99.90
10249;DHT22;5169;50.560;9.714;2022-08-21T09:23:25;23.30;99.90
10249;DHT22;5169;50.560;9.714;2022-08-21T09:26:07;23.30;99.90
10249;DHT22;5169;50.560;9.714;2022-08-21T09:28:43;23.20;99.90
10249;DHT22;5169;50.560;9.714;2022-08-21T09:31:30;23.40;99.90
10249;DHT22;5169;50.560;9.714;2022-08-21T09:34:29;23.70;99.90
10249;DHT22;5169;50.560;9.714;2022-08-21T09:36:58;24.10;99.60
10249;DHT22;5169;50.560;9.714;2022-08-21T09:39:32;24.50;98.40
10249;DHT22;5169;50.560;9.714;2022-08-21T09:42:09;24.90;97.30
10249;DHT22;5169;50.560;9.714;2022-08-21T09:44:45;25.10;96.20
10249;DHT22;5169;50.560;9.714;2022-08-21T09:47:11;25.20;95.80
10249;DHT22;5169;50.560;9.714;2022-08-21T09:49:42;25.50;94.80
10249;DHT22;5169;50.560;9.714;2022-08-21T09:52:22;25.60;94.10
10249;DHT22;5169;50.560;9.714;2022-08-21T09:54:57;25.50;93.50
10249;DHT22;5169;50.560;9.714;2022-08-21T09:57:27;25.30;94.10
10249;DHT22;5169;50.560;9.714;2022-08-21T10:00:34;25.10;93.50
10249;DHT22;5169;50.560;9.714;2022-08-21T10:03:17;25.10;93.20
10249;DHT22;5169;50.560;9.714;2022-08-21T10:06:22;25.10;93.10
10249;DHT22;5169;50.560;9.714;2022-08-21T10:08:48;25.20;92.80
10249;DHT22;5169;50.560;9.714;2022-08-21T10:11:17;25.50;92.30
10249;DHT22;5169;50.560;9.714;2022-08-21T10:17:04;25.70;91.20
10249;DHT22;5169;50.560;9.714;2022-08-21T10:25:30;26.20;90.10
10249;DHT22;5169;50.560;9.714;2022-08-21T10:33:53;26.30;91.10
10249;DHT22;5169;50.560;9.714;2022-08-21T10:42:08;27.40;88.70
10249;DHT22;5169;50.560;9.714;2022-08-21T10:47:54;26.60;87.00
10249;DHT22;5169;50.560;9.714;2022-08-21T10:56:10;28.70;82.90
10249;DHT22;5169;50.560;9.714;2022-08-21T10:58:40;29.70;76.50
10249;DHT22;5169;50.560;9.714;2022-08-21T11:01:17;28.70;78.50
10249;DHT22;5169;50.560;9.714;2022-08-21T11:04:07;28.40;80.00
10249;DHT22;5169;50.560;9.714;2022-08-21T11:06:40;27.40;84.30
10249;DHT22;5169;50.560;9.714;2022-08-21T11:09:18;27.60;84.50
10249;DHT22;5169;50.560;9.714;2022-08-21T11:12:03;29.70;80.60
10249;DHT22;5169;50.560;9.714;2022-08-21T11:17:43;35.70;62.30
10249;DHT22;5169;50.560;9.714;2022-08-21T11:22:50;37.40;52.10
10249;DHT22;5169;50.560;9.714;2022-08-21T11:25:36;37.80;48.90
10249;DHT22;5169;50.560;9.714;2022-08-21T11:29:11;38.40;47.10
10249;DHT22;5169;50.560;9.714;2022-08-21T11:31:46;38.00;44.60
10249;DHT22;5169;50.560;9.714;2022-08-21T11:37:08;38.20;42.20
10249;DHT22;5169;50.560;9.714;2022-08-21T11:42:40;36.80;44.70
10249;DHT22;5169;50.560;9.714;2022-08-21T11:50:30;31.10;53.70
10249;DHT22;5169;50.560;9.714;2022-08-21T12:01:36;30.00;56.60
10249;DHT22;5169;50.560;9.714;2022-08-21T12:04:26;32.60;52.30
10249;DHT22;5169;50.560;9.714;2022-08-21T12:06:53;34.20;49.20
10249;DHT22;5169;50.560;9.714;2022-08-21T12:12:01;36.10;46.50
10249;DHT22;5169;50.560;9.714;2022-08-21T12:14:42;37.30;43.90
10249;DHT22;5169;50.560;9.714;2022-08-21T12:17:21;37.30;43.00
10249;DHT22;5169;50.560;9.714;2022-08-21T12:20:00;37.30;42.10
10249;DHT22;5169;50.560;9.714;2022-08-21T12:22:52;37.50;44.00
10249;DHT22;5169;50.560;9.714;2022-08-21T12:25:22;37.20;42.10
10249;DHT22;5169;50.560;9.714;2022-08-21T12:28:06;37.60;41.70
10249;DHT22;5169;50.560;9.714;2022-08-21T12:30:38;38.30;40.90
10249;DHT22;5169;50.560;9.714;2022-08-21T12:35:47;37.80;40.70
10249;DHT22;5169;50.560;9.714;2022-08-21T12:38:39;36.40;41.90
10249;DHT22;5169;50.560;9.714;2022-08-21T12:41:16;33.50;46.00
10249;DHT22;5169;50.560;9.714;2022-08-21T12:44:01;31.30;49.60
10249;DHT22;5169;50.560;9.714;2022-08-21T12:46:50;30.00;52.40
10249;DHT22;5169;50.560;9.714;2022-08-21T12:49:30;29.20;54.70
10249;DHT22;5169;50.560;9.714;2022-08-21T12:55:07;28.70;55.20
10249;DHT22;5169;50.560;9.714;2022-08-21T12:57:40;28.60;57.70
10249;DHT22;5169;50.560;9.714;2022-08-21T13:00:24;28.00;57.10
10249;DHT22;5169;50.560;9.714;2022-08-21T13:02:51;28.00;58.70
10249;DHT22;5169;50.560;9.714;2022-08-21T13:05:39;28.50;59.10
10249;DHT22;5169;50.560;9.714;2022-08-21T13:08:14;29.00;56.00
10249;DHT22;5169;50.560;9.714;2022-08-21T13:10:47;29.20;54.70
10249;DHT22;5169;50.560;9.714;2022-08-21T13:13:24;29.40;55.10
10249;DHT22;5169;50.560;9.714;2022-08-21T13:16:04;29.60;54.60
10249;DHT22;5169;50.560;9.714;2022-08-21T13:19:02;29.80;54.10
10249;DHT22;5169;50.560;9.714;2022-08-21T13:21:38;29.10;53.80
10249;DHT22;5169;50.560;9.714;2022-08-21T13:24:26;28.90;55.30
10249;DHT22;5169;50.560;9.714;2022-08-21T13:26:52;28.50;57.00
10249;DHT22;5169;50.560;9.714;2022-08-21T13:29:28;28.10;57.00
10249;DHT22;5169;50.560;9.714;2022-08-21T13:32:02;27.90;57.90
10249;DHT22;5169;50.560;9.714;2022-08-21T13:34:36;27.70;57.50
10249;DHT22;5169;50.560;9.714;2022-08-21T13:37:13;27.60;57.20
10249;DHT22;5169;50.560;9.714;2022-08-21T13:39:51;27.70;56.80
10249;DHT22;5169;50.560;9.714;2022-08-21T13:42:18;27.60;58.50
10249;DHT22;5169;50.560;9.714;2022-08-21T13:44:47;27.90;57.50
10249;DHT22;5169;50.560;9.714;2022-08-21T13:47:16;28.00;56.70
10249;DHT22;5169;50.560;9.714;2022-08-21T13:49:54;28.10;56.20
10249;DHT22;5169;50.560;9.714;2022-08-21T13:52:26;27.90;55.70
10249;DHT22;5169;50.560;9.714;2022-08-21T13:55:12;27.80;56.40
10249;DHT22;5169;50.560;9.714;2022-08-21T13:57:38;27.70;55.50
10249;DHT22;5169;50.560;9.714;2022-08-21T14:00:26;27.60;57.20
10249;DHT22;5169;50.560;9.714;2022-08-21T14:03:04;27.80;57.00
10249;DHT22;5169;50.560;9.714;2022-08-21T14:05:37;28.00;56.10
10249;DHT22;5169;50.560;9.714;2022-08-21T14:08:08;28.00;56.50
10249;DHT22;5169;50.560;9.714;2022-08-21T14:10:43;27.80;57.20
10249;DHT22;5169;50.560;9.714;2022-08-21T14:13:34;27.60;58.20
10249;DHT22;5169;50.560;9.714;2022-08-21T14:16:14;27.40;56.40
10249;DHT22;5169;50.560;9.714;2022-08-21T14:18:51;27.50;57.00
10249;DHT22;5169;50.560;9.714;2022-08-21T14:21:32;27.60;55.20
10249;DHT22;5169;50.560;9.714;2022-08-21T14:29:39;28.10;54.10
10249;DHT22;5169;50.560;9.714;2022-08-21T14:32:19;28.10;55.30
10249;DHT22;5169;50.560;9.714;2022-08-21T14:34:52;28.00;54.60
10249;DHT22;5169;50.560;9.714;2022-08-21T14:37:18;27.80;54.30
10249;DHT22;5169;50.560;9.714;2022-08-21T14:39:50;27.90;54.40
10249;DHT22;5169;50.560;9.714;2022-08-21T14:42:16;28.00;55.10
10249;DHT22;5169;50.560;9.714;2022-08-21T14:44:42;28.10;54.00
10249;DHT22;5169;50.560;9.714;2022-08-21T14:47:20;28.20;55.40
10249;DHT22;5169;50.560;9.714;2022-08-21T14:49:48;28.20;54.10
10249;DHT22;5169;50.560;9.714;2022-08-21T14:52:14;28.10;53.70
10249;DHT22;5169;50.560;9.714;2022-08-21T14:54:40;28.10;55.70
10249;DHT22;5169;50.560;9.714;2022-08-21T14:57:08;28.20;53.40
10249;DHT22;5169;50.560;9.714;2022-08-21T14:59:41;28.00;53.30
10249;DHT22;5169;50.560;9.714;2022-08-21T15:02:08;27.80;54.90
10249;DHT22;5169;50.560;9.714;2022-08-21T15:04:39;27.80;56.30
10249;DHT22;5169;50.560;9.714;2022-08-21T15:07:05;27.90;56.10
10249;DHT22;5169;50.560;9.714;2022-08-21T15:09:31;27.70;56.40
10249;DHT22;5169;50.560;9.714;2022-08-21T15:12:01;27.80;55.90
10249;DHT22;5169;50.560;9.714;2022-08-21T15:14:30;27.80;55.90
10249;DHT22;5169;50.560;9.714;2022-08-21T15:16:57;27.80;57.60
10249;DHT22;5169;50.560;9.714;2022-08-21T15:19:26;27.60;56.60
10249;DHT22;5169;50.560;9.714;2022-08-21T15:21:52;27.40;56.10
10249;DHT22;5169;50.560;9.714;2022-08-21T15:24:18;27.20;56.70
10249;DHT22;5169;50.560;9.714;2022-08-21T15:26:44;27.20;58.00
10249;DHT22;5169;50.560;9.714;2022-08-21T15:29:14;27.20;57.10
10249;DHT22;5169;50.560;9.714;2022-08-21T15:32:03;27.10;56.00
10249;DHT22;5169;50.560;9.714;2022-08-21T15:34:39;27.00;56.60
10249;DHT22;5169;50.560;9.714;2022-08-21T15:37:16;27.00;57.40
10249;DHT22;5169;50.560;9.714;2022-08-21T15:39:42;26.90;57.20
10249;DHT22;5169;50.560;9.714;2022-08-21T15:42:14;26.90;57.30
10249;DHT22;5169;50.560;9.714;2022-08-21T15:44:40;26.90;56.10
10249;DHT22;5169;50.560;9.714;2022-08-21T15:47:15;26.90;56.40
10249;DHT22;5169;50.560;9.714;2022-08-21T15:49:42;26.90;57.80
10249;DHT22;5169;50.560;9.714;2022-08-21T15:52:16;26.80;56.30
10249;DHT22;5169;50.560;9.714;2022-08-21T15:54:42;26.70;58.40
10249;DHT22;5169;50.560;9.714;2022-08-21T15:57:17;26.70;58.30
10249;DHT22;5169;50.560;9.714;2022-08-21T15:59:52;26.50;56.70
10249;DHT22;5169;50.560;9.714;2022-08-21T16:02:28;26.30;56.10
10249;DHT22;5169;50.560;9.714;2022-08-21T16:04:58;26.10;57.40
10249;DHT22;5169;50.560;9.714;2022-08-21T16:07:29;25.90;58.20
10249;DHT22;5169;50.560;9.714;2022-08-21T16:10:02;25.80;58.50
10249;DHT22;5169;50.560;9.714;2022-08-21T16:12:37;25.80;57.50
10249;DHT22;5169;50.560;9.714;2022-08-21T16:15:12;25.80;58.10
10249;DHT22;5169;50.560;9.714;2022-08-21T16:17:46;25.80;57.50
10249;DHT22;5169;50.560;9.714;2022-08-21T16:20:30;25.80;57.80
10249;DHT22;5169;50.560;9.714;2022-08-21T16:22:56;25.80;57.40
10249;DHT22;5169;50.560;9.714;2022-08-21T16:25:23;25.70;58.10
10249;DHT22;5169;50.560;9.714;2022-08-21T16:27:58;25.50;58.70
10249;DHT22;5169;50.560;9.714;2022-08-21T16:30:26;25.50;59.80
10249;DHT22;5169;50.560;9.714;2022-08-21T16:32:55;25.40;60.00
10249;DHT22;5169;50.560;9.714;2022-08-21T16:35:23;25.50;58.30
10249;DHT22;5169;50.560;9.714;2022-08-21T16:37:49;25.40;59.70
10249;DHT22;5169;50.560;9.714;2022-08-21T16:40:23;25.40;58.50
10249;DHT22;5169;50.560;9.714;2022-08-21T16:42:54;25.30;59.70
10249;DHT22;5169;50.560;9.714;2022-08-21T16:45:20;25.30;59.40
10249;DHT22;5169;50.560;9.714;2022-08-21T16:47:49;25.40;59.10
10249;DHT22;5169;50.560;9.714;2022-08-21T16:50:23;25.20;58.90
10249;DHT22;5169;50.560;9.714;2022-08-21T16:52:49;25.10;59.10
10249;DHT22;5169;50.560;9.714;2022-08-21T16:55:19;25.10;58.40
10249;DHT22;5169;50.560;9.714;2022-08-21T16:57:44;25.00;58.70
10249;DHT22;5169;50.560;9.714;2022-08-21T17:00:10;25.00;59.30
10249;DHT22;5169;50.560;9.714;2022-08-21T17:02:47;24.90;58.80
10249;DHT22;5169;50.560;9.714;2022-08-21T17:05:21;24.80;59.00
10249;DHT22;5169;50.560;9.714;2022-08-21T17:07:47;24.70;59.40
10249;DHT22;5169;50.560;9.714;2022-08-21T17:10:19;24.70;59.20
10249;DHT22;5169;50.560;9.714;2022-08-21T17:12:55;24.70;58.40
10249;DHT22;5169;50.560;9.714;2022-08-21T17:15:25;24.50;59.10
10249;DHT22;5169;50.560;9.714;2022-08-21T17:18:02;24.50;60.60
10249;DHT22;5169;50.560;9.714;2022-08-21T17:20:31;24.40;61.50
10249;DHT22;5169;50.560;9.714;2022-08-21T17:23:09;24.30;61.50
10249;DHT22;5169;50.560;9.714;2022-08-21T17:25:37;24.30;60.30
10249;DHT22;5169;50.560;9.714;2022-08-21T17:28:35;24.20;60.60
10249;DHT22;5169;50.560;9.714;2022-08-21T17:31:02;24.10;62.00
10249;DHT22;5169;50.560;9.714;2022-08-21T17:33:46;24.00;62.90
10249;DHT22;5169;50.560;9.714;2022-08-21T17:36:26;23.90;62.20
10249;DHT22;5169;50.560;9.714;2022-08-21T17:38:56;23.80;61.50